Página principal
METAR-TAF:

METAR-TAF

Aeroportos :

Magdalena, Bolívia

latitude: 13-20S, longitude: 064-07W, altura: 140 m

Observação actual do tempo

O boletim foi feito há 27 minutos, às 15:00 UTC
Vento calmo
Temperatura 26°C
Humidade 89%
Pressão 1015 hPa
Visibilidade 10 km ou mais
Poucas nuvensa uma altura de 800 ft
Nuvens fragmentadasa uma altura de 1500 ft
Nuvens fragmentadasa uma altura de 8000 ft

METAR: SLMG 261500Z 00000KT 9999 FEW008 BKN015 BKN080 26/24 Q1015

Hora: 11:27 (15:27 UTC)


TAF: em falta

Observações e previsões do tempo de mais de 4000 aeroportos (mensagens METAR e TAF).

As estações disponíveis são os pontos amarelos e vermelhos sobre o mapa.

Mova o rato sobre o mapa para ver o nome da estação.

Depois clique no ponto para visualizar as observações e previsões meteorológicas.

Para alterar o mapa : clique nos botões verdes com uma cruz preta para aumentar o zoom; no botão verde com uma pitada de zoom; ou nas setas verdes para mapas adjacentes.


METAR-TAF: